createdAt,value
2022-08-19T00:01:34.488Z,81.08
2022-08-19T00:04:08.748Z,81.30
2022-08-19T00:06:38.145Z,81.96
2022-08-19T00:09:06.990Z,81.47
2022-08-19T00:11:38.547Z,81.97
2022-08-19T00:14:07.711Z,81.79
2022-08-19T00:16:34.246Z,82.33
2022-08-19T00:19:02.280Z,82.46
2022-08-19T00:21:28.795Z,82.21
2022-08-19T00:23:59.125Z,82.03
2022-08-19T00:26:28.103Z,82.54
2022-08-19T00:28:55.216Z,83.56
2022-08-19T00:31:22.199Z,84.29
2022-08-19T00:33:51.427Z,84.81
2022-08-19T00:36:18.413Z,84.90
2022-08-19T00:38:44.967Z,85.64
2022-08-19T00:41:15.604Z,85.83
2022-08-19T00:43:42.233Z,86.02
2022-08-19T00:46:09.085Z,86.36
2022-08-19T00:48:37.203Z,86.93
2022-08-19T00:51:06.606Z,87.27
2022-08-19T00:53:35.203Z,87.40
2022-08-19T00:56:03.338Z,88.13
2022-08-19T00:58:33.460Z,88.97
2022-08-19T01:01:01.641Z,88.56
2022-08-19T01:03:28.626Z,88.68
2022-08-19T01:05:56.044Z,88.69
2022-08-19T01:08:23.253Z,89.39
2022-08-19T01:10:56.863Z,89.51
2022-08-19T01:13:49.097Z,91.60
2022-08-19T01:16:18.714Z,91.69
2022-08-19T01:18:45.337Z,91.88
2022-08-19T01:21:35.509Z,91.27
2022-08-19T01:24:02.310Z,91.94
2022-08-19T01:26:29.293Z,91.27
2022-08-19T01:29:01.948Z,90.68
2022-08-19T01:31:32.720Z,90.10
2022-08-19T01:34:01.373Z,89.55
2022-08-19T01:36:37.127Z,89.64
2022-08-19T01:39:07.816Z,89.54
2022-08-19T01:41:35.131Z,89.65
2022-08-19T01:44:17.915Z,90.15
2022-08-19T01:46:48.146Z,90.28
2022-08-19T01:49:15.628Z,90.31
2022-08-19T01:51:42.177Z,89.69
2022-08-19T01:54:10.088Z,89.61
2022-08-19T01:56:37.035Z,90.01
2022-08-19T01:59:09.337Z,90.40
2022-08-19T02:01:36.393Z,90.87
2022-08-19T02:04:03.229Z,91.34
2022-08-19T02:06:30.730Z,91.76
2022-08-19T02:08:57.828Z,92.15
2022-08-19T02:11:32.655Z,92.53
2022-08-19T02:14:00.981Z,92.31
2022-08-19T02:16:27.523Z,92.57
2022-08-19T02:18:54.187Z,92.73
2022-08-19T02:21:22.703Z,93.32
2022-08-19T02:23:50.693Z,94.10
2022-08-19T02:26:17.752Z,94.54
2022-08-19T02:28:44.299Z,94.80
2022-08-19T02:31:12.561Z,95.26
2022-08-19T02:33:39.271Z,95.99
2022-08-19T02:36:07.412Z,96.26
2022-08-19T02:38:35.646Z,96.52
2022-08-19T02:41:11.957Z,96.88
2022-08-19T02:43:39.681Z,96.91
2022-08-19T02:46:22.156Z,97.13
2022-08-19T02:48:53.456Z,98.06
2022-08-19T02:51:33.267Z,98.73
2022-08-19T02:54:00.908Z,99.03
2022-08-19T02:56:28.489Z,99.41
2022-08-19T02:58:58.704Z,99.75
2022-08-19T03:01:31.897Z,100.00
2022-08-19T03:04:01.924Z,100.00
2022-08-19T03:06:28.505Z,100.00
2022-08-19T03:08:55.458Z,100.00
2022-08-19T03:11:25.149Z,100.00
2022-08-19T03:13:52.248Z,100.00
2022-08-19T03:16:21.200Z,100.00
2022-08-19T03:18:48.872Z,100.00
2022-08-19T03:21:22.586Z,100.00
2022-08-19T03:23:49.159Z,100.00
2022-08-19T03:26:17.140Z,100.00
2022-08-19T03:28:50.962Z,100.00
2022-08-19T03:31:44.901Z,100.00
2022-08-19T03:34:09.047Z,100.00
2022-08-19T03:36:36.715Z,100.00
2022-08-19T03:39:03.617Z,100.00
2022-08-19T03:41:44.969Z,100.00
2022-08-19T03:44:18.072Z,100.00
2022-08-19T03:46:46.578Z,100.00
2022-08-19T03:49:13.950Z,100.00
2022-08-19T03:51:42.988Z,100.00
2022-08-19T03:54:12.492Z,100.00
2022-08-19T03:56:40.906Z,100.00
2022-08-19T03:59:15.356Z,100.00
2022-08-19T04:01:42.117Z,100.00
2022-08-19T04:04:09.469Z,100.00
2022-08-19T04:06:39.886Z,100.00
2022-08-19T04:09:09.416Z,100.00
2022-08-19T04:11:44.589Z,100.00
2022-08-19T04:14:18.052Z,100.00
2022-08-19T04:16:45.888Z,100.00
2022-08-19T04:19:13.501Z,100.00
2022-08-19T04:21:40.832Z,100.00
2022-08-19T04:24:08.166Z,100.00
2022-08-19T04:26:36.866Z,100.00
2022-08-19T04:29:14.216Z,100.00
2022-08-19T04:31:42.045Z,100.00
2022-08-19T04:34:12.001Z,100.00
2022-08-19T04:36:42.317Z,99.64
2022-08-19T04:39:13.006Z,97.64
2022-08-19T04:41:57.847Z,94.06
2022-08-19T04:44:24.662Z,90.44
2022-08-19T04:46:52.395Z,87.32
2022-08-19T04:49:23.343Z,86.51
2022-08-19T04:51:51.385Z,85.92
2022-08-19T04:54:30.979Z,84.63
2022-08-19T04:57:07.757Z,84.30
2022-08-19T04:59:34.839Z,83.88
2022-08-19T05:02:01.637Z,84.40
2022-08-19T05:04:29.650Z,84.83
2022-08-19T05:07:00.680Z,86.24
2022-08-19T05:09:28.751Z,86.51
2022-08-19T05:12:15.425Z,86.60
2022-08-19T05:14:42.197Z,87.62
2022-08-19T05:17:26.577Z,88.66
2022-08-19T05:20:12.642Z,89.31
2022-08-19T05:22:39.905Z,87.04
2022-08-19T05:25:13.033Z,85.28
2022-08-19T05:27:40.681Z,84.91
2022-08-19T05:30:07.779Z,84.15
2022-08-19T05:32:34.482Z,84.35
2022-08-19T05:35:01.015Z,84.77
2022-08-19T05:37:28.700Z,84.39
2022-08-19T05:39:55.734Z,84.82
2022-08-19T05:42:24.053Z,84.90
2022-08-19T05:44:51.859Z,82.91
2022-08-19T05:47:20.854Z,83.05
2022-08-19T05:49:48.209Z,83.30
2022-08-19T05:52:22.898Z,79.50
2022-08-19T05:54:55.715Z,79.06
2022-08-19T05:57:23.250Z,80.16
2022-08-19T05:59:53.237Z,79.01
2022-08-19T06:02:26.048Z,77.55
2022-08-19T06:04:52.745Z,78.50
2022-08-19T06:07:20.411Z,77.65
2022-08-19T06:09:54.464Z,75.35
2022-08-19T06:12:29.899Z,73.68
2022-08-19T06:15:01.333Z,76.10
2022-08-19T06:17:31.058Z,76.57
2022-08-19T06:20:00.813Z,74.88
2022-08-19T06:22:29.027Z,71.32
2022-08-19T06:24:56.533Z,69.18
2022-08-19T06:27:23.154Z,68.30
2022-08-19T06:29:50.212Z,66.43
2022-08-19T06:32:18.674Z,66.60
2022-08-19T06:34:45.231Z,66.25
2022-08-19T06:37:12.847Z,62.54
2022-08-19T06:39:42.072Z,59.26
2022-08-19T06:42:12.364Z,57.81
2022-08-19T06:44:42.639Z,57.17
2022-08-19T06:47:14.260Z,57.86
2022-08-19T06:49:42.033Z,59.02
2022-08-19T06:52:08.848Z,60.13
2022-08-19T06:54:37.633Z,60.20
2022-08-19T06:57:22.089Z,59.94
2022-08-19T06:59:48.685Z,60.09
2022-08-19T07:02:15.593Z,60.66
2022-08-19T07:04:42.779Z,57.34
2022-08-19T07:07:20.159Z,57.08
2022-08-19T07:09:59.147Z,56.10
2022-08-19T07:12:28.131Z,55.61
2022-08-19T07:14:56.365Z,56.34
2022-08-19T07:17:24.496Z,54.91
2022-08-19T07:19:51.612Z,52.95
2022-08-19T07:22:24.186Z,51.65
2022-08-19T07:24:51.898Z,50.29
2022-08-19T07:27:24.811Z,48.42
2022-08-19T07:29:57.213Z,47.91
2022-08-19T07:32:28.890Z,47.16
2022-08-19T07:34:56.463Z,45.68
2022-08-19T07:37:27.323Z,46.15
2022-08-19T07:39:56.270Z,45.46
2022-08-19T07:42:23.038Z,45.23
2022-08-19T07:44:50.014Z,44.95
2022-08-19T07:47:49.365Z,44.52
2022-08-19T07:50:08.455Z,42.98
2022-08-19T07:52:37.217Z,41.19
2022-08-19T07:55:05.293Z,42.22
2022-08-19T07:57:32.057Z,41.36
2022-08-19T07:59:58.667Z,41.48
2022-08-19T08:02:25.215Z,41.10
2022-08-19T08:05:10.373Z,41.80
2022-08-19T08:07:55.178Z,43.46
2022-08-19T08:10:21.710Z,44.60
2022-08-19T08:13:09.306Z,44.91
2022-08-19T08:15:43.189Z,45.03
2022-08-19T08:18:12.403Z,46.34
2022-08-19T08:20:39.526Z,46.32
2022-08-19T08:23:25.850Z,48.66
2022-08-19T08:25:55.939Z,47.38
2022-08-19T08:28:24.122Z,44.52
2022-08-19T08:30:51.886Z,44.35
2022-08-19T08:33:32.897Z,42.41
2022-08-19T08:36:05.489Z,41.49
2022-08-19T08:38:38.753Z,40.58
2022-08-19T08:41:48.274Z,39.03
2022-08-19T08:44:29.556Z,41.47
2022-08-19T08:47:03.349Z,43.31
2022-08-19T08:49:43.514Z,40.85
2022-08-19T08:52:21.122Z,38.23
2022-08-19T08:54:55.392Z,39.44
2022-08-19T08:57:29.017Z,36.29
2022-08-19T09:00:15.151Z,36.60
2022-08-19T09:02:43.274Z,35.97
2022-08-19T09:05:16.577Z,38.03
2022-08-19T09:07:58.985Z,39.88
2022-08-19T09:10:35.363Z,37.70
2022-08-19T09:13:37.562Z,34.58
2022-08-19T09:16:21.922Z,35.88
2022-08-19T09:19:01.680Z,36.20
2022-08-19T09:21:33.098Z,38.66
2022-08-19T09:24:01.039Z,38.95
2022-08-19T09:26:35.502Z,37.93
2022-08-19T09:29:17.848Z,36.27
2022-08-19T09:31:44.846Z,35.23
2022-08-19T09:34:21.091Z,32.58
2022-08-19T09:36:54.836Z,33.15
2022-08-19T09:39:21.921Z,34.06
2022-08-19T09:41:49.152Z,32.29
2022-08-19T09:44:16.061Z,33.99
2022-08-19T09:46:43.045Z,34.54
2022-08-19T09:49:09.998Z,36.04
2022-08-19T09:51:36.651Z,37.39
2022-08-19T09:54:05.234Z,37.44
2022-08-19T09:56:34.037Z,39.06
2022-08-19T09:59:01.765Z,40.73
2022-08-19T10:01:30.664Z,38.94
2022-08-19T10:03:59.219Z,38.89
2022-08-19T10:06:43.946Z,37.34
2022-08-19T10:09:13.523Z,39.97
2022-08-19T10:11:52.580Z,40.91
2022-08-19T10:14:23.490Z,39.56
2022-08-19T10:16:52.747Z,39.46
2022-08-19T10:19:25.421Z,39.64
2022-08-19T10:21:53.187Z,39.22
2022-08-19T10:24:21.588Z,38.68
2022-08-19T10:26:57.265Z,40.01
2022-08-19T10:29:33.083Z,40.97
2022-08-19T10:32:09.382Z,40.80
2022-08-19T10:34:38.195Z,40.69
2022-08-19T10:37:28.813Z,41.34
2022-08-19T10:39:57.715Z,38.68
2022-08-19T10:42:24.340Z,38.49
2022-08-19T10:44:52.020Z,37.79
2022-08-19T10:47:25.439Z,35.18
2022-08-19T10:50:12.653Z,35.02
2022-08-19T10:52:49.020Z,36.57
2022-08-19T10:55:35.903Z,39.02
2022-08-19T10:58:02.870Z,41.22
2022-08-19T11:00:31.818Z,40.80
2022-08-19T11:02:58.501Z,38.59
2022-08-19T11:05:25.209Z,37.87
2022-08-19T11:07:52.738Z,36.82
2022-08-19T11:10:21.867Z,35.39
2022-08-19T11:12:49.396Z,35.42
2022-08-19T11:15:16.661Z,34.11
2022-08-19T11:17:44.782Z,33.15
2022-08-19T11:20:15.939Z,34.37
2022-08-19T11:22:43.278Z,36.15
2022-08-19T11:25:11.999Z,36.07
2022-08-19T11:27:44.626Z,37.19
2022-08-19T11:30:13.845Z,34.68
2022-08-19T11:32:48.763Z,33.97
2022-08-19T11:35:17.019Z,33.64
2022-08-19T11:37:43.610Z,33.80
2022-08-19T11:40:11.191Z,33.72
2022-08-19T11:42:56.519Z,33.52
2022-08-19T11:45:29.142Z,33.36
2022-08-19T11:47:56.299Z,32.19
2022-08-19T11:50:24.547Z,32.17
2022-08-19T11:52:54.986Z,32.60
2022-08-19T11:55:21.734Z,34.12
2022-08-19T11:57:48.307Z,34.61
2022-08-19T12:00:15.158Z,33.50
2022-08-19T12:02:41.742Z,33.56
2022-08-19T12:05:12.565Z,37.58
2022-08-19T12:07:40.700Z,35.13
2022-08-19T12:10:07.941Z,35.25
2022-08-19T12:12:35.861Z,35.29
2022-08-19T12:15:03.132Z,35.13
2022-08-19T12:17:29.845Z,35.11
2022-08-19T12:19:56.405Z,36.60
2022-08-19T12:22:23.534Z,34.80
2022-08-19T12:24:51.807Z,35.56
2022-08-19T12:27:31.906Z,35.93
2022-08-19T12:30:09.522Z,37.96
2022-08-19T12:32:37.014Z,37.95
2022-08-19T12:35:04.463Z,36.95
2022-08-19T12:37:32.994Z,36.66
2022-08-19T12:39:59.778Z,37.81
2022-08-19T12:42:26.351Z,37.64
2022-08-19T12:44:53.495Z,39.35
2022-08-19T12:47:20.136Z,38.44
2022-08-19T12:49:53.095Z,39.13
2022-08-19T12:52:25.982Z,39.38
2022-08-19T12:54:55.321Z,39.61
2022-08-19T12:57:32.647Z,40.84
2022-08-19T13:00:14.347Z,40.56
2022-08-19T13:02:42.661Z,37.85
2022-08-19T13:05:12.212Z,36.87
2022-08-19T13:07:41.076Z,36.88
2022-08-19T13:10:10.064Z,37.16
2022-08-19T13:12:36.754Z,38.54
2022-08-19T13:15:03.682Z,39.35
2022-08-19T13:17:39.176Z,38.97
2022-08-19T13:20:08.790Z,38.80
2022-08-19T13:22:38.962Z,39.95
2022-08-19T13:25:06.987Z,39.69
2022-08-19T13:27:33.566Z,39.43
2022-08-19T13:30:19.730Z,39.79
2022-08-19T13:33:06.536Z,39.50
2022-08-19T13:35:33.046Z,38.45
2022-08-19T13:37:59.739Z,37.95
2022-08-19T13:40:27.923Z,38.06
2022-08-19T13:42:56.184Z,38.11
2022-08-19T13:45:25.420Z,37.18
2022-08-19T13:47:59.163Z,36.67
2022-08-19T13:50:34.369Z,37.90
2022-08-19T13:53:02.897Z,38.81
2022-08-19T13:55:29.490Z,38.20
2022-08-19T13:57:58.649Z,38.38
2022-08-19T14:00:27.964Z,38.16
2022-08-19T14:02:56.950Z,37.64
2022-08-19T14:05:24.387Z,38.74
2022-08-19T14:07:51.519Z,40.25
2022-08-19T14:10:19.892Z,39.33
2022-08-19T14:12:49.559Z,39.32
2022-08-19T14:15:16.694Z,40.07
2022-08-19T14:17:45.376Z,39.50
2022-08-19T14:20:18.320Z,41.27
2022-08-19T14:22:46.859Z,41.71
2022-08-19T14:25:16.594Z,41.72
2022-08-19T14:27:43.523Z,40.82
2022-08-19T14:30:13.417Z,41.76
2022-08-19T14:32:40.035Z,42.45
2022-08-19T14:35:10.678Z,42.55
2022-08-19T14:37:45.736Z,43.08
2022-08-19T14:40:15.349Z,43.33
2022-08-19T14:42:42.797Z,43.75
2022-08-19T14:45:11.975Z,42.73
2022-08-19T14:47:39.822Z,42.82
2022-08-19T14:50:10.612Z,43.92
2022-08-19T14:52:44.600Z,43.59
2022-08-19T14:55:11.118Z,43.81
2022-08-19T14:57:37.754Z,43.88
2022-08-19T15:00:05.224Z,44.21
2022-08-19T15:02:34.107Z,44.42
2022-08-19T15:05:01.792Z,45.97
2022-08-19T15:07:29.687Z,47.49
2022-08-19T15:09:56.732Z,48.92
2022-08-19T15:12:23.680Z,51.27
2022-08-19T15:14:56.207Z,51.37
2022-08-19T15:17:45.280Z,51.98
2022-08-19T15:20:13.695Z,53.57
2022-08-19T15:22:41.018Z,53.68
2022-08-19T15:25:09.044Z,53.72
2022-08-19T15:27:39.936Z,54.51
2022-08-19T15:30:10.948Z,55.06
2022-08-19T15:32:39.142Z,55.64
2022-08-19T15:35:08.047Z,56.31
2022-08-19T15:37:37.080Z,56.22
2022-08-19T15:40:06.249Z,57.19
2022-08-19T15:42:33.431Z,57.85
2022-08-19T15:45:00.815Z,58.40
2022-08-19T15:47:34.715Z,58.99
2022-08-19T15:50:13.302Z,60.04
2022-08-19T15:52:53.187Z,60.55
2022-08-19T15:55:34.049Z,60.72
2022-08-19T15:58:30.095Z,61.25
2022-08-19T16:01:26.873Z,61.82
2022-08-19T16:04:15.932Z,62.21
2022-08-19T16:06:49.451Z,62.77
2022-08-19T16:09:18.637Z,62.86
2022-08-19T16:11:56.426Z,63.52
2022-08-19T16:14:24.450Z,65.04
2022-08-19T16:16:51.454Z,65.12
2022-08-19T16:19:20.167Z,64.90
2022-08-19T16:21:50.220Z,65.39
2022-08-19T16:24:18.911Z,65.65
2022-08-19T16:26:46.337Z,65.89
2022-08-19T16:29:13.774Z,66.07
2022-08-19T16:31:43.481Z,65.53
2022-08-19T16:34:11.212Z,65.69
2022-08-19T16:36:42.035Z,66.42
2022-08-19T16:39:13.245Z,66.63
2022-08-19T16:41:41.527Z,65.86
2022-08-19T16:44:11.485Z,66.16
2022-08-19T16:46:41.536Z,66.21
2022-08-19T16:49:11.120Z,65.67
2022-08-19T16:51:38.988Z,65.49
2022-08-19T16:54:06.437Z,65.85
2022-08-19T16:56:33.222Z,67.07
2022-08-19T16:58:59.873Z,67.12
2022-08-19T17:01:27.514Z,66.53
2022-08-19T17:03:55.340Z,66.62
2022-08-19T17:06:29.880Z,66.56
2022-08-19T17:09:00.420Z,66.81
2022-08-19T17:11:29.568Z,66.88
2022-08-19T17:13:58.925Z,67.18
2022-08-19T17:16:27.934Z,67.16
2022-08-19T17:18:57.170Z,67.10
2022-08-19T17:21:28.104Z,67.67
2022-08-19T17:23:56.030Z,67.79
2022-08-19T17:26:25.291Z,68.07
2022-08-19T17:28:53.862Z,68.33
2022-08-19T17:31:23.612Z,69.32
2022-08-19T17:33:51.144Z,69.62
2022-08-19T17:36:23.314Z,70.07
2022-08-19T17:38:51.185Z,70.23
2022-08-19T17:41:17.774Z,70.76
2022-08-19T17:43:45.103Z,70.82
2022-08-19T17:46:20.354Z,71.52
2022-08-19T17:48:52.552Z,72.77
2022-08-19T17:51:45.158Z,73.59
2022-08-19T17:54:18.694Z,73.48
2022-08-19T17:56:46.353Z,74.16
2022-08-19T17:59:14.510Z,74.85
2022-08-19T18:01:53.516Z,75.08
2022-08-19T18:04:22.323Z,75.58
2022-08-19T18:06:53.212Z,74.83
2022-08-19T18:09:24.073Z,74.93
2022-08-19T18:11:52.605Z,75.58
2022-08-19T18:14:20.222Z,75.86
2022-08-19T18:16:46.781Z,75.91
2022-08-19T18:19:13.366Z,76.61
2022-08-19T18:21:40.817Z,76.76
2022-08-19T18:24:07.963Z,76.77
2022-08-19T18:26:34.903Z,76.73
2022-08-19T18:29:02.016Z,77.12
2022-08-19T18:31:30.054Z,77.07
2022-08-19T18:33:57.017Z,77.03
2022-08-19T18:36:52.166Z,77.37
2022-08-19T18:39:29.490Z,77.84
2022-08-19T18:42:15.237Z,78.13
2022-08-19T18:45:00.462Z,77.95
2022-08-19T18:47:45.894Z,78.13
2022-08-19T18:50:13.840Z,78.45
2022-08-19T18:52:40.661Z,78.74
2022-08-19T18:55:08.331Z,79.74
2022-08-19T18:57:35.168Z,81.08
2022-08-19T19:00:02.914Z,80.77
2022-08-19T19:02:29.437Z,80.04
2022-08-19T19:04:56.115Z,80.02
2022-08-19T19:07:23.408Z,82.89
2022-08-19T19:09:52.793Z,82.37
2022-08-19T19:12:19.664Z,83.23
2022-08-19T19:14:49.496Z,83.30
2022-08-19T19:17:16.830Z,82.91
2022-08-19T19:19:44.191Z,83.47
2022-08-19T19:22:13.610Z,82.54
2022-08-19T19:24:44.307Z,82.41
2022-08-19T19:27:13.027Z,82.30
2022-08-19T19:29:40.286Z,81.79
2022-08-19T19:32:18.287Z,82.67
2022-08-19T19:34:44.933Z,83.22
2022-08-19T19:37:11.538Z,83.87
2022-08-19T19:39:46.776Z,84.97
2022-08-19T19:42:20.325Z,86.59
2022-08-19T19:44:50.495Z,87.06
2022-08-19T19:47:19.235Z,86.60
2022-08-19T19:50:10.728Z,86.97
2022-08-19T19:52:33.706Z,89.66
2022-08-19T19:55:01.365Z,88.58
2022-08-19T19:57:29.502Z,89.43
2022-08-19T19:59:56.488Z,89.03
2022-08-19T20:02:25.169Z,90.68
2022-08-19T20:04:52.106Z,91.08
2022-08-19T20:07:38.558Z,93.95
2022-08-19T20:10:05.465Z,98.46
2022-08-19T20:12:32.046Z,100.00
2022-08-19T20:14:58.570Z,100.00
2022-08-19T20:17:25.208Z,100.00
2022-08-19T20:19:51.750Z,100.00
2022-08-19T20:22:19.067Z,100.00
2022-08-19T20:24:45.757Z,100.00
2022-08-19T20:27:12.318Z,100.00
2022-08-19T20:29:41.611Z,100.00
2022-08-19T20:32:11.455Z,100.00
2022-08-19T20:34:39.563Z,100.00
2022-08-19T20:37:07.778Z,100.00
2022-08-19T20:39:35.400Z,100.00
2022-08-19T20:42:01.998Z,100.00
2022-08-19T20:44:28.706Z,100.00
2022-08-19T20:46:58.493Z,100.00
2022-08-19T20:49:27.813Z,100.00
2022-08-19T20:51:56.452Z,100.00
2022-08-19T20:54:24.154Z,100.00
2022-08-19T20:56:51.088Z,100.00
2022-08-19T20:59:17.785Z,100.00
2022-08-19T21:01:44.357Z,100.00
2022-08-19T21:04:10.850Z,100.00
2022-08-19T21:06:38.572Z,100.00
2022-08-19T21:09:08.927Z,100.00
2022-08-19T21:11:36.798Z,100.00
2022-08-19T21:14:03.668Z,100.00
2022-08-19T21:16:32.962Z,100.00
2022-08-19T21:19:00.485Z,100.00
2022-08-19T21:21:27.390Z,100.00
2022-08-19T21:23:53.921Z,100.00
2022-08-19T21:26:20.959Z,100.00
2022-08-19T21:28:47.538Z,100.00
2022-08-19T21:31:15.301Z,100.00
2022-08-19T21:33:41.846Z,100.00
2022-08-19T21:36:08.901Z,100.00
2022-08-19T21:38:35.952Z,100.00
2022-08-19T21:41:05.827Z,100.00
2022-08-19T21:43:33.039Z,100.00
2022-08-19T21:45:59.610Z,100.00
2022-08-19T21:48:26.131Z,100.00
2022-08-19T21:50:52.679Z,100.00
2022-08-19T21:53:19.487Z,100.00
2022-08-19T21:55:53.205Z,100.00
2022-08-19T21:58:28.253Z,100.00
2022-08-19T22:00:57.798Z,100.00
2022-08-19T22:03:25.758Z,100.00
2022-08-19T22:08:44.798Z,100.00
2022-08-19T22:11:12.160Z,100.00
2022-08-19T22:13:40.381Z,100.00
2022-08-19T22:16:08.369Z,100.00
2022-08-19T22:18:35.425Z,100.00
2022-08-19T22:21:02.278Z,100.00
2022-08-19T22:23:28.919Z,100.00
2022-08-19T22:25:55.411Z,100.00
2022-08-19T22:28:28.101Z,100.00
2022-08-19T22:30:55.793Z,100.00
2022-08-19T22:33:22.894Z,100.00
2022-08-19T22:35:52.816Z,100.00
2022-08-19T22:38:19.379Z,100.00
2022-08-19T22:40:48.644Z,100.00
2022-08-19T22:43:24.514Z,100.00
2022-08-19T22:45:52.817Z,100.00
2022-08-19T22:48:22.607Z,100.00
2022-08-19T22:51:08.901Z,100.00
2022-08-19T22:53:37.627Z,100.00
2022-08-19T22:56:06.393Z,100.00
2022-08-19T22:58:33.607Z,100.00
2022-08-19T23:01:01.414Z,100.00
2022-08-19T23:03:28.985Z,100.00
2022-08-19T23:05:56.206Z,100.00
2022-08-19T23:08:23.751Z,100.00
2022-08-19T23:10:50.449Z,100.00
2022-08-19T23:13:19.883Z,100.00
2022-08-19T23:15:47.055Z,100.00
2022-08-19T23:18:14.640Z,100.00
2022-08-19T23:20:44.139Z,100.00
2022-08-19T23:23:14.395Z,100.00
2022-08-19T23:25:41.175Z,100.00
2022-08-19T23:30:53.493Z,100.00
2022-08-19T23:33:50.605Z,100.00
2022-08-19T23:36:16.290Z,100.00
2022-08-19T23:38:44.630Z,100.00
2022-08-19T23:41:13.419Z,100.00
2022-08-19T23:43:41.802Z,100.00
2022-08-19T23:46:11.486Z,100.00
2022-08-19T23:48:39.799Z,100.00
2022-08-19T23:51:09.389Z,100.00
2022-08-19T23:53:38.464Z,100.00
2022-08-19T23:56:07.409Z,100.00
2022-08-19T23:58:35.074Z,100.00
